sensor_id;sensor_type;location;lat;lon;timestamp;pressure;altitude;pressure_sealevel;temperature;humidity
7832;BME280;3961;42.058;25.586;2022-07-12T00:01:42;64441.75;;;19.59;64.30
7832;BME280;3961;42.058;25.586;2022-07-12T00:04:08;64439.41;;;19.57;64.78
7832;BME280;3961;42.058;25.586;2022-07-12T00:06:33;64454.72;;;19.66;64.26
7832;BME280;3961;42.058;25.586;2022-07-12T00:08:59;64420.75;;;19.41;65.02
7832;BME280;3961;42.058;25.586;2022-07-12T00:11:24;64424.81;;;19.44;65.52
7832;BME280;3961;42.058;25.586;2022-07-12T00:13:50;64419.00;;;19.39;65.56
7832;BME280;3961;42.058;25.586;2022-07-12T00:16:16;64431.22;;;19.50;64.93
7832;BME280;3961;42.058;25.586;2022-07-12T00:18:41;64406.75;;;19.29;66.08
7832;BME280;3961;42.058;25.586;2022-07-12T00:21:07;64424.00;;;19.41;65.68
7832;BME280;3961;42.058;25.586;2022-07-12T00:23:34;64413.38;;;19.37;65.57
7832;BME280;3961;42.058;25.586;2022-07-12T00:25:59;64414.09;;;19.33;66.05
7832;BME280;3961;42.058;25.586;2022-07-12T00:28:30;64397.41;;;19.21;66.44
7832;BME280;3961;42.058;25.586;2022-07-12T00:30:57;64363.59;;;18.91;68.17
7832;BME280;3961;42.058;25.586;2022-07-12T00:33:22;64365.94;;;18.93;68.43
7832;BME280;3961;42.058;25.586;2022-07-12T00:35:48;64363.00;;;18.91;68.40
7832;BME280;3961;42.058;25.586;2022-07-12T00:38:13;64375.25;;;19.01;68.08
7832;BME280;3961;42.058;25.586;2022-07-12T00:40:39;64363.00;;;18.91;68.56
7832;BME280;3961;42.058;25.586;2022-07-12T00:43:04;64357.56;;;18.84;68.82
7832;BME280;3961;42.058;25.586;2022-07-12T00:45:30;64354.88;;;18.84;69.76
7832;BME280;3961;42.058;25.586;2022-07-12T00:47:56;64351.00;;;18.83;70.09
7832;BME280;3961;42.058;25.586;2022-07-12T00:50:22;64356.25;;;18.87;69.19
7832;BME280;3961;42.058;25.586;2022-07-12T00:52:50;64343.56;;;18.71;70.22
7832;BME280;3961;42.058;25.586;2022-07-12T00:55:17;64335.28;;;18.69;70.43
7832;BME280;3961;42.058;25.586;2022-07-12T00:57:44;64331.91;;;18.61;70.79
7832;BME280;3961;42.058;25.586;2022-07-12T01:00:12;64352.53;;;18.82;69.55
7832;BME280;3961;42.058;25.586;2022-07-12T01:02:38;64323.72;;;18.54;69.97
7832;BME280;3961;42.058;25.586;2022-07-12T01:05:06;64325.69;;;18.58;70.21
7832;BME280;3961;42.058;25.586;2022-07-12T01:07:33;64338.91;;;18.67;70.06
7832;BME280;3961;42.058;25.586;2022-07-12T01:10:00;64336.22;;;18.67;70.23
7832;BME280;3961;42.058;25.586;2022-07-12T01:12:26;64310.91;;;18.43;70.96
7832;BME280;3961;42.058;25.586;2022-07-12T01:14:53;64308.22;;;18.43;72.00
7832;BME280;3961;42.058;25.586;2022-07-12T01:17:21;64316.59;;;18.53;71.35
7832;BME280;3961;42.058;25.586;2022-07-12T01:19:51;64313.59;;;18.43;72.37
7832;BME280;3961;42.058;25.586;2022-07-12T01:22:18;64304.16;;;18.39;72.46
7832;BME280;3961;42.058;25.586;2022-07-12T01:24:45;64306.72;;;18.44;72.30
7832;BME280;3961;42.058;25.586;2022-07-12T01:27:13;64301.81;;;18.37;72.45
7832;BME280;3961;42.058;25.586;2022-07-12T01:29:39;64299.84;;;18.33;72.99
7832;BME280;3961;42.058;25.586;2022-07-12T01:32:06;64269.44;;;18.11;74.71
7832;BME280;3961;42.058;25.586;2022-07-12T01:34:57;64276.78;;;18.16;74.72
7832;BME280;3961;42.058;25.586;2022-07-12T01:37:24;64263.97;;;18.04;74.88
7832;BME280;3961;42.058;25.586;2022-07-12T01:39:52;64263.16;;;18.01;74.89
7832;BME280;3961;42.058;25.586;2022-07-12T01:42:20;64278.66;;;18.12;74.93
7832;BME280;3961;42.058;25.586;2022-07-12T01:44:45;64264.31;;;18.02;74.62
7832;BME280;3961;42.058;25.586;2022-07-12T01:47:11;64264.56;;;18.05;74.96
7832;BME280;3961;42.058;25.586;2022-07-12T01:49:37;64236.03;;;17.80;75.35
7832;BME280;3961;42.058;25.586;2022-07-12T01:52:03;64249.97;;;17.92;75.58
7832;BME280;3961;42.058;25.586;2022-07-12T01:54:29;64232.19;;;17.79;76.17
7832;BME280;3961;42.058;25.586;2022-07-12T01:56:55;64236.03;;;17.80;76.43
7832;BME280;3961;42.058;25.586;2022-07-12T01:59:21;64246.84;;;17.87;75.78
7832;BME280;3961;42.058;25.586;2022-07-12T02:01:47;64257.19;;;18.01;75.26
7832;BME280;3961;42.058;25.586;2022-07-12T02:04:17;64248.81;;;17.91;75.43
7832;BME280;3961;42.058;25.586;2022-07-12T02:06:46;64222.63;;;17.68;75.46
7832;BME280;3961;42.058;25.586;2022-07-12T02:09:12;64234.84;;;17.79;76.00
7832;BME280;3961;42.058;25.586;2022-07-12T02:11:38;64226.13;;;17.71;75.78
7832;BME280;3961;42.058;25.586;2022-07-12T02:14:04;64237.19;;;17.81;75.67
7832;BME280;3961;42.058;25.586;2022-07-12T02:16:29;64220.88;;;17.67;76.07
7832;BME280;3961;42.058;25.586;2022-07-12T02:18:55;64204.56;;;17.53;76.66
7832;BME280;3961;42.058;25.586;2022-07-12T02:21:21;64210.53;;;17.53;77.14
7832;BME280;3961;42.058;25.586;2022-07-12T02:23:46;64214.00;;;17.56;77.24
7832;BME280;3961;42.058;25.586;2022-07-12T02:26:12;64220.31;;;17.66;76.74
7832;BME280;3961;42.058;25.586;2022-07-12T02:28:37;64219.94;;;17.68;76.50
7832;BME280;3961;42.058;25.586;2022-07-12T02:31:03;64202.81;;;17.51;77.38
7832;BME280;3961;42.058;25.586;2022-07-12T02:33:28;64195.63;;;17.42;77.27
7832;BME280;3961;42.058;25.586;2022-07-12T02:35:54;64166.53;;;17.17;78.33
7832;BME280;3961;42.058;25.586;2022-07-12T02:38:19;64160.00;;;17.16;78.84
7832;BME280;3961;42.058;25.586;2022-07-12T02:40:47;64165.94;;;17.17;79.15
7832;BME280;3961;42.058;25.586;2022-07-12T02:43:20;64155.13;;;17.09;79.68
7832;BME280;3961;42.058;25.586;2022-07-12T02:45:46;64147.53;;;17.03;80.12
7832;BME280;3961;42.058;25.586;2022-07-12T02:48:12;64155.13;;;17.09;80.31
7832;BME280;3961;42.058;25.586;2022-07-12T02:50:40;64161.75;;;17.18;79.49
7832;BME280;3961;42.058;25.586;2022-07-12T02:53:07;64172.91;;;17.23;79.48
7832;BME280;3961;42.058;25.586;2022-07-12T02:55:33;64176.97;;;17.26;79.03
7832;BME280;3961;42.058;25.586;2022-07-12T02:57:58;64151.50;;;17.11;79.46
7832;BME280;3961;42.058;25.586;2022-07-12T03:00:24;64150.69;;;17.08;80.03
7832;BME280;3961;42.058;25.586;2022-07-12T03:02:49;64157.91;;;17.17;79.85
7832;BME280;3961;42.058;25.586;2022-07-12T03:05:15;64153.38;;;17.08;80.04
7832;BME280;3961;42.058;25.586;2022-07-12T03:07:42;64163.25;;;17.17;79.30
7832;BME280;3961;42.058;25.586;2022-07-12T03:10:07;64142.31;;;16.98;80.48
7832;BME280;3961;42.058;25.586;2022-07-12T03:12:34;64149.66;;;17.02;80.04
7832;BME280;3961;42.058;25.586;2022-07-12T03:14:59;64141.16;;;16.97;80.11
7832;BME280;3961;42.058;25.586;2022-07-12T03:17:25;64158.03;;;17.12;79.48
7832;BME280;3961;42.058;25.586;2022-07-12T03:19:51;64164.19;;;17.15;78.85
7832;BME280;3961;42.058;25.586;2022-07-12T03:22:17;64170.81;;;17.23;78.20
7832;BME280;3961;42.058;25.586;2022-07-12T03:24:42;64194.44;;;17.41;76.97
7832;BME280;3961;42.058;25.586;2022-07-12T03:27:08;64204.94;;;17.51;76.47
7832;BME280;3961;42.058;25.586;2022-07-12T03:29:34;64250.91;;;17.91;73.88
7832;BME280;3961;42.058;25.586;2022-07-12T03:32:00;64265.00;;;18.10;73.26
7832;BME280;3961;42.058;25.586;2022-07-12T03:34:25;64228.44;;;17.73;74.84
7832;BME280;3961;42.058;25.586;2022-07-12T03:36:51;64269.69;;;18.02;74.95
7832;BME280;3961;42.058;25.586;2022-07-12T03:39:16;64288.41;;;18.26;75.31
7832;BME280;3961;42.058;25.586;2022-07-12T03:41:42;64280.50;;;18.21;74.39
7832;BME280;3961;42.058;25.586;2022-07-12T03:44:07;64309.75;;;18.42;71.83
7832;BME280;3961;42.058;25.586;2022-07-12T03:46:33;64302.75;;;18.36;70.67
7832;BME280;3961;42.058;25.586;2022-07-12T03:48:59;64299.13;;;18.37;70.37
7832;BME280;3961;42.058;25.586;2022-07-12T03:51:25;64370.38;;;18.95;67.55
7832;BME280;3961;42.058;25.586;2022-07-12T03:53:51;64521.69;;;20.29;61.06
7832;BME280;3961;42.058;25.586;2022-07-12T03:56:17;64864.91;;;23.27;53.30
7832;BME280;3961;42.058;25.586;2022-07-12T03:59:02;65191.94;;;26.07;47.29
7832;BME280;3961;42.058;25.586;2022-07-12T04:01:28;65312.19;;;27.09;44.31
7832;BME280;3961;42.058;25.586;2022-07-12T04:03:55;65367.31;;;27.61;41.98
7832;BME280;3961;42.058;25.586;2022-07-12T04:06:20;65312.41;;;27.12;43.33
7832;BME280;3961;42.058;25.586;2022-07-12T04:08:46;65453.78;;;28.36;40.58
7832;BME280;3961;42.058;25.586;2022-07-12T04:11:11;65613.78;;;29.71;37.42
7832;BME280;3961;42.058;25.586;2022-07-12T04:13:37;65697.50;;;30.44;35.82
7832;BME280;3961;42.058;25.586;2022-07-12T04:16:03;65645.41;;;29.96;35.25
7832;BME280;3961;42.058;25.586;2022-07-12T04:18:29;65723.91;;;30.71;34.40
7832;BME280;3961;42.058;25.586;2022-07-12T04:20:55;65731.16;;;30.72;34.24
7832;BME280;3961;42.058;25.586;2022-07-12T04:23:20;65886.19;;;32.03;32.12
7832;BME280;3961;42.058;25.586;2022-07-12T04:25:46;65854.09;;;31.73;31.84
7832;BME280;3961;42.058;25.586;2022-07-12T04:28:11;65806.25;;;31.32;32.26
7832;BME280;3961;42.058;25.586;2022-07-12T04:30:37;65900.56;;;32.18;30.38
7832;BME280;3961;42.058;25.586;2022-07-12T04:33:02;65907.28;;;32.26;31.15
7832;BME280;3961;42.058;25.586;2022-07-12T04:35:28;65734.28;;;30.70;31.68
7832;BME280;3961;42.058;25.586;2022-07-12T04:37:53;65471.63;;;28.47;36.23
7832;BME280;3961;42.058;25.586;2022-07-12T04:40:19;65463.00;;;28.41;36.62
7832;BME280;3961;42.058;25.586;2022-07-12T04:42:45;65770.09;;;31.06;32.41
7832;BME280;3961;42.058;25.586;2022-07-12T04:45:10;65768.69;;;31.02;32.52
7832;BME280;3961;42.058;25.586;2022-07-12T04:47:36;65957.91;;;32.67;29.38
7832;BME280;3961;42.058;25.586;2022-07-12T04:50:08;65775.38;;;31.11;32.03
7832;BME280;3961;42.058;25.586;2022-07-12T04:52:36;65937.63;;;32.48;29.64
7832;BME280;3961;42.058;25.586;2022-07-12T04:55:03;65923.22;;;32.33;30.01
7832;BME280;3961;42.058;25.586;2022-07-12T04:57:29;65813.56;;;31.41;31.42
7832;BME280;3961;42.058;25.586;2022-07-12T04:59:54;65668.63;;;30.19;33.04
7832;BME280;3961;42.058;25.586;2022-07-12T05:02:20;65816.50;;;31.44;31.54
7832;BME280;3961;42.058;25.586;2022-07-12T05:04:45;65765.94;;;31.02;31.71
7832;BME280;3961;42.058;25.586;2022-07-12T05:07:11;65680.41;;;30.29;32.26
7832;BME280;3961;42.058;25.586;2022-07-12T05:09:37;65628.53;;;29.84;33.33
7832;BME280;3961;42.058;25.586;2022-07-12T05:12:03;65476.53;;;28.53;35.08
7832;BME280;3961;42.058;25.586;2022-07-12T05:14:28;65309.47;;;27.09;38.17
7832;BME280;3961;42.058;25.586;2022-07-12T05:16:54;65216.38;;;26.26;40.17
7832;BME280;3961;42.058;25.586;2022-07-12T05:19:20;65110.31;;;25.37;42.61
7832;BME280;3961;42.058;25.586;2022-07-12T05:21:46;65027.25;;;24.67;44.03
7832;BME280;3961;42.058;25.586;2022-07-12T05:24:11;65038.38;;;24.77;44.23
7832;BME280;3961;42.058;25.586;2022-07-12T05:26:37;65062.81;;;24.96;43.42
7832;BME280;3961;42.058;25.586;2022-07-12T05:29:03;64933.59;;;23.82;45.67
7832;BME280;3961;42.058;25.586;2022-07-12T05:31:28;65008.69;;;24.54;45.07
7832;BME280;3961;42.058;25.586;2022-07-12T05:33:54;64988.34;;;24.31;45.37
7832;BME280;3961;42.058;25.586;2022-07-12T05:36:19;65045.41;;;24.83;44.13
7832;BME280;3961;42.058;25.586;2022-07-12T05:38:45;65065.38;;;25.00;46.19
7832;BME280;3961;42.058;25.586;2022-07-12T05:41:10;65123.81;;;25.49;45.51
7832;BME280;3961;42.058;25.586;2022-07-12T05:43:36;65096.84;;;25.25;43.84
7832;BME280;3961;42.058;25.586;2022-07-12T05:46:02;65064.59;;;24.97;46.35
7832;BME280;3961;42.058;25.586;2022-07-12T05:48:28;65061.28;;;24.97;44.76
7832;BME280;3961;42.058;25.586;2022-07-12T05:50:54;65047.97;;;24.88;44.47
7832;BME280;3961;42.058;25.586;2022-07-12T05:53:19;65051.13;;;24.93;45.20
7832;BME280;3961;42.058;25.586;2022-07-12T05:55:52;65071.81;;;25.06;42.83
7832;BME280;3961;42.058;25.586;2022-07-12T05:58:19;65060.09;;;24.96;45.15
7832;BME280;3961;42.058;25.586;2022-07-12T06:00:45;65053.41;;;24.88;43.79
7832;BME280;3961;42.058;25.586;2022-07-12T06:03:13;65048.72;;;24.84;43.44
7832;BME280;3961;42.058;25.586;2022-07-12T06:05:39;65092.38;;;25.24;44.06
7832;BME280;3961;42.058;25.586;2022-07-12T06:08:05;65091.19;;;25.23;42.61
7832;BME280;3961;42.058;25.586;2022-07-12T06:10:32;65087.09;;;25.19;43.37
7832;BME280;3961;42.058;25.586;2022-07-12T06:13:00;65090.16;;;25.17;43.07
7832;BME280;3961;42.058;25.586;2022-07-12T06:15:25;65113.84;;;25.40;43.48
7832;BME280;3961;42.058;25.586;2022-07-12T06:17:52;65120.66;;;25.43;42.42
7832;BME280;3961;42.058;25.586;2022-07-12T06:20:18;65062.59;;;24.93;43.43
7832;BME280;3961;42.058;25.586;2022-07-12T06:22:43;65052.47;;;24.89;42.99
7832;BME280;3961;42.058;25.586;2022-07-12T06:25:09;65116.19;;;25.42;42.61
7832;BME280;3961;42.058;25.586;2022-07-12T06:27:34;65127.34;;;25.52;42.51
7832;BME280;3961;42.058;25.586;2022-07-12T06:30:00;65137.91;;;25.61;41.65
7832;BME280;3961;42.058;25.586;2022-07-12T06:32:25;65066.72;;;24.97;42.95
7832;BME280;3961;42.058;25.586;2022-07-12T06:34:51;65154.00;;;25.77;42.77
7832;BME280;3961;42.058;25.586;2022-07-12T06:37:16;65174.19;;;25.97;41.56
7832;BME280;3961;42.058;25.586;2022-07-12T06:39:42;65190.16;;;26.06;40.72
7832;BME280;3961;42.058;25.586;2022-07-12T06:42:09;65117.38;;;25.43;40.62
7832;BME280;3961;42.058;25.586;2022-07-12T06:44:35;65117.75;;;25.41;41.44
7832;BME280;3961;42.058;25.586;2022-07-12T06:47:00;65100.72;;;25.26;41.88
7832;BME280;3961;42.058;25.586;2022-07-12T06:49:26;65101.91;;;25.27;42.51
7832;BME280;3961;42.058;25.586;2022-07-12T06:51:52;65139.69;;;25.62;42.18
7832;BME280;3961;42.058;25.586;2022-07-12T06:54:18;65149.66;;;25.71;41.67
7832;BME280;3961;42.058;25.586;2022-07-12T06:56:43;65224.84;;;26.36;40.75
7832;BME280;3961;42.058;25.586;2022-07-12T06:59:09;65197.22;;;26.12;39.43
7832;BME280;3961;42.058;25.586;2022-07-12T07:01:38;65214.25;;;26.27;39.56
7832;BME280;3961;42.058;25.586;2022-07-12T07:04:04;65220.94;;;26.35;39.48
7832;BME280;3961;42.058;25.586;2022-07-12T07:06:29;65302.78;;;27.01;38.19
7832;BME280;3961;42.058;25.586;2022-07-12T07:08:55;65284.34;;;26.83;38.36
7832;BME280;3961;42.058;25.586;2022-07-12T07:11:21;65283.75;;;26.82;37.96
7832;BME280;3961;42.058;25.586;2022-07-12T07:13:46;65280.06;;;26.84;38.38
7832;BME280;3961;42.058;25.586;2022-07-12T07:16:12;65272.06;;;26.79;38.37
7832;BME280;3961;42.058;25.586;2022-07-12T07:18:39;65225.22;;;26.34;38.00
7832;BME280;3961;42.058;25.586;2022-07-12T07:21:06;65251.06;;;26.56;38.63
7832;BME280;3961;42.058;25.586;2022-07-12T07:23:32;65302.03;;;27.05;38.82
7832;BME280;3961;42.058;25.586;2022-07-12T07:25:58;65245.63;;;26.56;38.33
7832;BME280;3961;42.058;25.586;2022-07-12T07:28:24;65265.16;;;26.68;38.91
7832;BME280;3961;42.058;25.586;2022-07-12T07:30:50;65309.47;;;27.09;38.12
7832;BME280;3961;42.058;25.586;2022-07-12T07:33:22;65310.63;;;27.10;36.89
7832;BME280;3961;42.058;25.586;2022-07-12T07:35:49;65347.28;;;27.44;36.78
7832;BME280;3961;42.058;25.586;2022-07-12T07:38:16;65360.03;;;27.53;36.80
7832;BME280;3961;42.058;25.586;2022-07-12T07:40:41;65287.13;;;26.90;35.28
7832;BME280;3961;42.058;25.586;2022-07-12T07:43:07;65286.38;;;26.94;35.70
7832;BME280;3961;42.058;25.586;2022-07-12T07:45:33;65340.41;;;27.33;35.80
7832;BME280;3961;42.058;25.586;2022-07-12T07:47:59;65334.34;;;27.33;35.11
7832;BME280;3961;42.058;25.586;2022-07-12T07:50:24;65349.44;;;27.43;35.35
7832;BME280;3961;42.058;25.586;2022-07-12T07:52:50;65368.03;;;27.57;35.17
7832;BME280;3961;42.058;25.586;2022-07-12T07:55:17;65409.44;;;27.95;34.74
7832;BME280;3961;42.058;25.586;2022-07-12T07:57:43;65404.53;;;27.89;33.97
7832;BME280;3961;42.058;25.586;2022-07-12T08:00:09;65425.69;;;28.07;33.05
7832;BME280;3961;42.058;25.586;2022-07-12T08:02:35;65409.63;;;27.91;33.12
7832;BME280;3961;42.058;25.586;2022-07-12T08:05:02;65418.84;;;28.03;33.60
7832;BME280;3961;42.058;25.586;2022-07-12T08:07:27;65449.47;;;28.30;33.60
7832;BME280;3961;42.058;25.586;2022-07-12T08:09:53;65446.50;;;28.27;32.44
7832;BME280;3961;42.058;25.586;2022-07-12T08:12:19;65442.03;;;28.26;32.59
7832;BME280;3961;42.058;25.586;2022-07-12T08:14:44;65409.84;;;27.93;32.21
7832;BME280;3961;42.058;25.586;2022-07-12T08:17:10;65443.78;;;28.27;32.09
7832;BME280;3961;42.058;25.586;2022-07-12T08:19:36;65432.19;;;28.13;32.67
7832;BME280;3961;42.058;25.586;2022-07-12T08:22:01;65382.38;;;27.72;33.20
7832;BME280;3961;42.058;25.586;2022-07-12T08:24:27;65418.63;;;28.01;32.18
7832;BME280;3961;42.058;25.586;2022-07-12T08:26:53;65470.88;;;28.51;31.88
7832;BME280;3961;42.058;25.586;2022-07-12T08:29:18;65460.28;;;28.41;33.52
7832;BME280;3961;42.058;25.586;2022-07-12T08:31:44;65446.91;;;28.25;32.53
7832;BME280;3961;42.058;25.586;2022-07-12T08:34:11;65443.97;;;28.23;31.94
7832;BME280;3961;42.058;25.586;2022-07-12T08:36:36;65480.66;;;28.57;32.82
7832;BME280;3961;42.058;25.586;2022-07-12T08:39:02;65464.78;;;28.43;32.50
7832;BME280;3961;42.058;25.586;2022-07-12T08:41:28;65482.63;;;28.61;32.00
7832;BME280;3961;42.058;25.586;2022-07-12T08:43:55;65465.34;;;28.43;31.51
7832;BME280;3961;42.058;25.586;2022-07-12T08:46:20;65412.38;;;27.98;31.60
7832;BME280;3961;42.058;25.586;2022-07-12T08:48:46;65489.66;;;28.60;31.76
7832;BME280;3961;42.058;25.586;2022-07-12T08:51:13;65511.69;;;28.81;30.99
7832;BME280;3961;42.058;25.586;2022-07-12T08:53:40;65561.53;;;29.22;31.77
7832;BME280;3961;42.058;25.586;2022-07-12T08:56:07;65547.00;;;29.12;30.69
7832;BME280;3961;42.058;25.586;2022-07-12T08:59:14;65580.34;;;29.38;30.07
7832;BME280;3961;42.058;25.586;2022-07-12T09:04:26;65587.44;;;29.44;31.08
7832;BME280;3961;42.058;25.586;2022-07-12T09:06:55;65578.44;;;29.41;31.86
7832;BME280;3961;42.058;25.586;2022-07-12T09:09:33;65597.88;;;29.58;30.73
7832;BME280;3961;42.058;25.586;2022-07-12T09:11:59;65598.47;;;29.58;31.90
7832;BME280;3961;42.058;25.586;2022-07-12T09:14:25;65638.31;;;29.90;30.93
7832;BME280;3961;42.058;25.586;2022-07-12T09:17:23;65628.53;;;29.84;31.76
7832;BME280;3961;42.058;25.586;2022-07-12T09:19:55;65688.66;;;30.36;29.25
7832;BME280;3961;42.058;25.586;2022-07-12T09:22:23;65704.59;;;30.50;28.78
7832;BME280;3961;42.058;25.586;2022-07-12T09:24:49;65645.84;;;30.01;28.36
7832;BME280;3961;42.058;25.586;2022-07-12T09:27:15;65604.56;;;29.66;29.55
7832;BME280;3961;42.058;25.586;2022-07-12T09:29:50;65655.06;;;30.07;29.11
7832;BME280;3961;42.058;25.586;2022-07-12T09:32:16;65643.25;;;29.97;28.59
7832;BME280;3961;42.058;25.586;2022-07-12T09:35:00;65658.78;;;30.05;29.81
7832;BME280;3961;42.058;25.586;2022-07-12T09:37:44;65596.69;;;29.57;28.15
7832;BME280;3961;42.058;25.586;2022-07-12T09:40:10;65561.34;;;29.26;28.06
7832;BME280;3961;42.058;25.586;2022-07-12T09:42:36;65548.97;;;29.16;28.67
7832;BME280;3961;42.058;25.586;2022-07-12T09:45:03;65551.13;;;29.15;29.44
7832;BME280;3961;42.058;25.586;2022-07-12T09:47:30;65614.97;;;29.72;28.73
7832;BME280;3961;42.058;25.586;2022-07-12T09:49:56;65632.06;;;29.87;28.74
7832;BME280;3961;42.058;25.586;2022-07-12T09:52:26;65642.66;;;29.96;29.84
7832;BME280;3961;42.058;25.586;2022-07-12T09:54:53;65618.69;;;29.71;29.36
7832;BME280;3961;42.058;25.586;2022-07-12T09:57:40;65661.72;;;30.08;30.49
7832;BME280;3961;42.058;25.586;2022-07-12T10:00:07;65684.56;;;30.39;29.11
7832;BME280;3961;42.058;25.586;2022-07-12T10:02:37;65679.41;;;30.23;28.50
7832;BME280;3961;42.058;25.586;2022-07-12T10:05:04;65671.59;;;30.21;29.18
7832;BME280;3961;42.058;25.586;2022-07-12T10:07:32;65664.13;;;30.17;27.61
7832;BME280;3961;42.058;25.586;2022-07-12T10:09:58;65578.81;;;29.39;27.46
7832;BME280;3961;42.058;25.586;2022-07-12T10:12:24;65581.38;;;29.44;27.78
7832;BME280;3961;42.058;25.586;2022-07-12T10:14:55;65528.34;;;28.98;27.57
7832;BME280;3961;42.058;25.586;2022-07-12T10:17:23;65593.19;;;29.54;28.96
7832;BME280;3961;42.058;25.586;2022-07-12T10:19:50;65626.56;;;29.80;28.21
7832;BME280;3961;42.058;25.586;2022-07-12T10:22:35;65556.25;;;29.24;28.30
7832;BME280;3961;42.058;25.586;2022-07-12T10:25:01;65475.97;;;28.53;28.66
7832;BME280;3961;42.058;25.586;2022-07-12T10:27:27;65531.47;;;28.96;28.92
7832;BME280;3961;42.058;25.586;2022-07-12T10:30:12;65522.31;;;28.97;29.54
7832;BME280;3961;42.058;25.586;2022-07-12T10:32:43;65548.75;;;29.13;29.99
7832;BME280;3961;42.058;25.586;2022-07-12T10:40:39;65636.56;;;29.89;28.16
7832;BME280;3961;42.058;25.586;2022-07-12T10:45:32;65623.41;;;29.75;27.79
7832;BME280;3961;42.058;25.586;2022-07-12T10:47:59;65606.56;;;29.70;29.29
7832;BME280;3961;42.058;25.586;2022-07-12T10:58:36;65635.00;;;29.90;28.59
7832;BME280;3961;42.058;25.586;2022-07-12T11:01:25;65668.22;;;30.14;28.03
7832;BME280;3961;42.058;25.586;2022-07-12T11:06:24;65719.34;;;30.62;26.94
7832;BME280;3961;42.058;25.586;2022-07-12T11:08:57;65747.47;;;30.84;27.76
7832;BME280;3961;42.058;25.586;2022-07-12T11:11:25;65722.88;;;30.65;27.39
7832;BME280;3961;42.058;25.586;2022-07-12T11:13:52;65713.44;;;30.57;27.07
7832;BME280;3961;42.058;25.586;2022-07-12T11:16:18;65757.09;;;30.95;26.86
7832;BME280;3961;42.058;25.586;2022-07-12T11:18:44;65744.13;;;30.84;27.08
7832;BME280;3961;42.058;25.586;2022-07-12T11:21:11;65726.81;;;30.66;26.38
7832;BME280;3961;42.058;25.586;2022-07-12T11:23:37;65734.47;;;30.73;26.86
7832;BME280;3961;42.058;25.586;2022-07-12T11:26:03;65736.84;;;30.75;26.39
7832;BME280;3961;42.058;25.586;2022-07-12T11:28:31;65711.06;;;30.55;27.36
7832;BME280;3961;42.058;25.586;2022-07-12T11:31:18;65745.09;;;30.82;27.20
7832;BME280;3961;42.058;25.586;2022-07-12T11:33:45;65710.88;;;30.53;27.74
7832;BME280;3961;42.058;25.586;2022-07-12T11:36:12;65758.88;;;30.96;27.46
7832;BME280;3961;42.058;25.586;2022-07-12T11:38:40;65715.59;;;30.57;26.02
7832;BME280;3961;42.058;25.586;2022-07-12T11:41:07;65752.38;;;30.91;25.64
7832;BME280;3961;42.058;25.586;2022-07-12T11:43:34;65664.88;;;30.13;26.03
7832;BME280;3961;42.058;25.586;2022-07-12T11:46:01;65576.66;;;29.39;27.32
7832;BME280;3961;42.058;25.586;2022-07-12T11:48:27;65543.84;;;29.06;28.07
7832;BME280;3961;42.058;25.586;2022-07-12T11:50:54;65598.66;;;29.54;27.30
7832;BME280;3961;42.058;25.586;2022-07-12T11:53:25;65660.34;;;30.04;27.16
7832;BME280;3961;42.058;25.586;2022-07-12T11:55:53;65657.22;;;30.06;26.85
7832;BME280;3961;42.058;25.586;2022-07-12T11:58:20;65696.50;;;30.38;27.32
7832;BME280;3961;42.058;25.586;2022-07-12T12:00:47;65638.31;;;29.90;25.91
7832;BME280;3961;42.058;25.586;2022-07-12T12:03:14;65619.47;;;29.74;25.96
7832;BME280;3961;42.058;25.586;2022-07-12T12:05:42;65636.38;;;29.86;25.90
7832;BME280;3961;42.058;25.586;2022-07-12T12:08:08;65641.69;;;29.98;25.25
7832;BME280;3961;42.058;25.586;2022-07-12T12:10:38;65671.59;;;30.21;25.01
7832;BME280;3961;42.058;25.586;2022-07-12T12:13:04;65671.38;;;30.19;24.74
7832;BME280;3961;42.058;25.586;2022-07-12T12:15:31;65690.81;;;30.35;25.27
7832;BME280;3961;42.058;25.586;2022-07-12T12:18:01;65699.28;;;30.45;25.44
7832;BME280;3961;42.058;25.586;2022-07-12T12:20:37;65732.72;;;30.71;25.14
7832;BME280;3961;42.058;25.586;2022-07-12T12:23:16;65725.25;;;30.67;25.70
7832;BME280;3961;42.058;25.586;2022-07-12T12:25:42;65738.59;;;30.77;25.28
7832;BME280;3961;42.058;25.586;2022-07-12T12:28:08;65714.03;;;30.58;25.95
7832;BME280;3961;42.058;25.586;2022-07-12T12:30:35;65747.47;;;30.84;25.75
7832;BME280;3961;42.058;25.586;2022-07-12T12:33:12;65655.44;;;30.05;25.45
7832;BME280;3961;42.058;25.586;2022-07-12T12:35:39;65656.63;;;30.06;24.82
7832;BME280;3961;42.058;25.586;2022-07-12T12:38:13;65631.44;;;29.80;25.34
7832;BME280;3961;42.058;25.586;2022-07-12T12:40:39;65550.16;;;29.17;26.38
7832;BME280;3961;42.058;25.586;2022-07-12T12:45:48;65668.84;;;30.21;27.08
7832;BME280;3961;42.058;25.586;2022-07-12T12:48:24;65667.44;;;30.18;26.68
7832;BME280;3961;42.058;25.586;2022-07-12T12:50:52;65676.28;;;30.25;24.86
7832;BME280;3961;42.058;25.586;2022-07-12T12:53:23;65668.63;;;30.19;25.39
7832;BME280;3961;42.058;25.586;2022-07-12T12:55:51;65657.81;;;30.07;25.86
7832;BME280;3961;42.058;25.586;2022-07-12T12:58:18;65581.53;;;29.39;27.24
7832;BME280;3961;42.058;25.586;2022-07-12T13:00:46;65611.06;;;29.71;26.67
7832;BME280;3961;42.058;25.586;2022-07-12T13:03:13;65643.03;;;29.94;26.65
7832;BME280;3961;42.058;25.586;2022-07-12T13:05:40;65656.47;;;30.11;25.50
7832;BME280;3961;42.058;25.586;2022-07-12T13:08:07;65664.50;;;30.15;26.56
7832;BME280;3961;42.058;25.586;2022-07-12T13:10:34;65702.03;;;30.45;25.94
7832;BME280;3961;42.058;25.586;2022-07-12T13:13:02;65721.13;;;30.64;26.54
7832;BME280;3961;42.058;25.586;2022-07-12T13:15:28;65681.97;;;30.28;26.18
7832;BME280;3961;42.058;25.586;2022-07-12T13:17:54;65627.56;;;29.86;27.11
7832;BME280;3961;42.058;25.586;2022-07-12T13:20:20;65690.22;;;30.35;27.54
7832;BME280;3961;42.058;25.586;2022-07-12T13:22:46;65653.34;;;30.13;26.83
7832;BME280;3961;42.058;25.586;2022-07-12T13:25:13;65686.47;;;30.29;26.98
7832;BME280;3961;42.058;25.586;2022-07-12T13:27:40;65651.69;;;29.99;26.88
7832;BME280;3961;42.058;25.586;2022-07-12T13:30:07;65702.81;;;30.48;27.70
7832;BME280;3961;42.058;25.586;2022-07-12T13:32:34;65723.28;;;30.63;26.65
7832;BME280;3961;42.058;25.586;2022-07-12T13:35:00;65729.97;;;30.71;26.60